RJTA(METAR)
05/28 02:00
METAR RJTA 271700Z 05005KT 9999 SCT030 BKN230 21/17 Q1012 RMK 4CU030
A2990=
戻る
トップページへ戻る
IMOC Co,.Ltd.